createdAt,value
2022-09-09T00:00:27.185Z,16.63999939
2022-09-09T00:01:28.901Z,16.61000061
2022-09-09T00:02:25.059Z,16.60000038
2022-09-09T00:03:29.784Z,16.61000061
2022-09-09T00:05:18.899Z,16.67000008
2022-09-09T00:05:58.519Z,16.72999954
2022-09-09T00:06:58.664Z,16.78000069
2022-09-09T00:08:00.086Z,16.78000069
2022-09-09T00:08:56.440Z,16.78000069
2022-09-09T00:09:58.993Z,16.78000069
2022-09-09T00:10:55.287Z,16.79999924
2022-09-09T00:11:57.715Z,16.78000069
2022-09-09T00:13:00.031Z,16.77000046
2022-09-09T00:14:01.249Z,16.77000046
2022-09-09T00:15:00.005Z,16.73999977
2022-09-09T00:15:57.433Z,16.72999954
2022-09-09T00:17:03.405Z,16.70999908
2022-09-09T00:18:01.445Z,16.67000008
2022-09-09T00:20:01.250Z,16.68000031
2022-09-09T00:21:02.481Z,16.72999954
2022-09-09T00:22:03.364Z,16.77000046
2022-09-09T00:23:04.375Z,16.77000046
2022-09-09T00:24:02.358Z,16.75
2022-09-09T00:25:02.856Z,16.71999931
2022-09-09T00:26:03.072Z,16.70000076
2022-09-09T00:27:03.495Z,16.68000031
2022-09-09T00:28:05.507Z,16.63999939
2022-09-09T00:30:09.809Z,16.60000038
2022-09-09T00:31:06.229Z,16.60000038
2022-09-09T00:32:02.670Z,16.59000015
2022-09-09T00:33:13.914Z,16.56999969
2022-09-09T00:35:06.149Z,16.60000038
2022-09-09T00:36:08.785Z,16.57999992
2022-09-09T00:37:10.751Z,16.54999924
2022-09-09T00:38:12.550Z,16.53000069
2022-09-09T00:40:11.656Z,16.52000046
2022-09-09T00:41:14.045Z,16.51000023
2022-09-09T00:42:10.137Z,16.51000023
2022-09-09T00:43:18.217Z,16.52000046
2022-09-09T00:44:22.087Z,16.53000069
2022-09-09T00:45:20.775Z,16.52000046
2022-09-09T00:46:23.010Z,16.51000023
2022-09-09T00:47:26.543Z,16.51000023
2022-09-09T00:48:21.482Z,16.5
2022-09-09T00:50:57.828Z,16.76000023
2022-09-09T00:51:59.755Z,16.80999947
2022-09-09T00:53:04.099Z,16.79999924
2022-09-09T00:54:52.193Z,16.79999924
2022-09-09T00:55:40.908Z,16.81999969
2022-09-09T00:56:42.455Z,16.80999947
2022-09-09T00:57:40.912Z,16.78000069
2022-09-09T00:59:41.657Z,16.71999931
2022-09-09T01:00:42.040Z,16.69000053
2022-09-09T01:01:46.720Z,16.67000008
2022-09-09T01:02:41.110Z,16.67000008
2022-09-09T01:03:41.734Z,16.68000031
2022-09-09T01:04:47.672Z,16.70999908
2022-09-09T01:05:43.148Z,16.71999931
2022-09-09T01:06:43.580Z,16.70999908
2022-09-09T01:07:43.562Z,16.70000076
2022-09-09T01:08:45.175Z,16.70999908
2022-09-09T01:09:43.111Z,16.69000053
2022-09-09T01:10:47.697Z,16.68000031
2022-09-09T01:11:46.183Z,16.68000031
2022-09-09T01:12:51.252Z,16.68000031
2022-09-09T01:14:46.410Z,16.70999908
2022-09-09T01:15:49.759Z,16.70999908
2022-09-09T01:16:45.222Z,16.70999908
2022-09-09T01:17:49.807Z,16.71999931
2022-09-09T01:18:44.213Z,16.73999977
2022-09-09T01:19:45.688Z,16.73999977
2022-09-09T01:20:42.225Z,16.73999977
2022-09-09T01:21:49.381Z,16.72999954
2022-09-09T01:22:43.821Z,16.71999931
2022-09-09T01:24:41.453Z,16.71999931
2022-09-09T01:25:42.227Z,16.70999908
2022-09-09T01:26:42.221Z,16.70000076
2022-09-09T01:27:49.106Z,16.70000076
2022-09-09T01:28:48.552Z,16.69000053
2022-09-09T01:29:47.756Z,16.70000076
2022-09-09T01:30:46.528Z,16.70000076
2022-09-09T01:32:30.421Z,16.77000046
2022-09-09T01:33:11.729Z,16.84000015
2022-09-09T01:34:09.771Z,16.87999916
2022-09-09T01:35:08.928Z,16.88999939
2022-09-09T01:36:04.426Z,16.87000084
2022-09-09T01:37:04.697Z,16.85000038
2022-09-09T01:38:06.706Z,16.84000015
2022-09-09T01:39:08.722Z,16.82999992
2022-09-09T01:40:09.221Z,16.80999947
2022-09-09T01:41:05.583Z,16.80999947
2022-09-09T01:42:04.780Z,16.79999924
2022-09-09T01:43:07.399Z,16.79000092
2022-09-09T01:44:56.978Z,16.82999992
2022-09-09T01:45:56.327Z,16.81999969
2022-09-09T01:46:51.697Z,16.80999947
2022-09-09T01:47:50.882Z,16.79999924
2022-09-09T01:48:46.059Z,16.81999969
2022-09-09T01:49:50.490Z,16.82999992
2022-09-09T01:50:43.855Z,16.82999992
2022-09-09T01:51:40.820Z,16.82999992
2022-09-09T01:52:44.406Z,16.84000015
2022-09-09T01:53:47.269Z,16.87000084
2022-09-09T01:54:42.451Z,16.89999962
2022-09-09T01:55:42.123Z,16.87999916
2022-09-09T01:56:37.356Z,16.87999916
2022-09-09T01:57:36.914Z,16.87999916
2022-09-09T01:58:31.799Z,16.87000084
2022-09-09T01:59:31.875Z,16.87000084
2022-09-09T02:00:27.331Z,16.86000061
2022-09-09T02:01:29.483Z,16.85000038
2022-09-09T02:02:22.259Z,16.84000015
2022-09-09T02:04:35.362Z,16.86000061
2022-09-09T02:05:21.160Z,16.87999916
2022-09-09T02:08:03.455Z,16.92000008
2022-09-09T02:08:23.788Z,16.95999908
2022-09-09T02:09:25.873Z,17.06999969
2022-09-09T02:10:25.504Z,17.09000015
2022-09-09T02:11:26.975Z,17.05999947
2022-09-09T02:12:22.266Z,17.02000046
2022-09-09T02:13:20.023Z,17
2022-09-09T02:14:22.834Z,16.96999931
2022-09-09T02:15:20.967Z,16.93000031
2022-09-09T02:16:16.265Z,16.88999939
2022-09-09T02:17:19.736Z,16.86000061
2022-09-09T02:18:18.932Z,16.82999992
2022-09-09T02:20:17.700Z,16.81999969
2022-09-09T02:21:13.309Z,16.80999947
2022-09-09T02:22:14.667Z,16.79999924
2022-09-09T02:23:10.906Z,16.78000069
2022-09-09T02:24:11.084Z,16.79000092
2022-09-09T02:25:05.774Z,16.78000069
2022-09-09T02:26:09.418Z,16.76000023
2022-09-09T02:27:07.526Z,16.75
2022-09-09T02:28:02.742Z,16.75
2022-09-09T02:29:10.919Z,16.77000046
2022-09-09T02:30:13.598Z,16.72999954
2022-09-09T02:31:09.423Z,16.72999954
2022-09-09T02:32:12.385Z,16.70999908
2022-09-09T02:33:04.634Z,16.71999931
2022-09-09T02:34:07.209Z,16.75
2022-09-09T02:35:03.028Z,16.75
2022-09-09T02:36:00.736Z,16.73999977
2022-09-09T02:37:02.576Z,16.73999977
2022-09-09T02:38:28.004Z,16.70000076
2022-09-09T02:40:09.374Z,16.79000092
2022-09-09T02:41:12.443Z,16.79999924
2022-09-09T02:42:08.624Z,16.79000092
2022-09-09T02:43:10.794Z,16.77000046
2022-09-09T02:45:13.702Z,16.77000046
2022-09-09T02:46:13.545Z,16.75
2022-09-09T02:47:09.941Z,16.72999954
2022-09-09T02:48:11.061Z,16.73999977
2022-09-09T02:50:09.091Z,16.76000023
2022-09-09T02:51:08.285Z,16.75
2022-09-09T02:52:11.082Z,16.72999954
2022-09-09T02:53:10.442Z,16.77000046
2022-09-09T02:54:05.572Z,16.79000092
2022-09-09T02:55:04.922Z,16.79999924
2022-09-09T02:56:06.190Z,16.79999924
2022-09-09T02:57:04.337Z,16.79999924
2022-09-09T02:58:05.990Z,16.79000092
2022-09-09T02:59:02.759Z,16.81999969
2022-09-09T03:00:04.029Z,16.81999969
2022-09-09T03:01:03.175Z,16.80999947
2022-09-09T03:02:04.242Z,16.79999924
2022-09-09T03:03:00.528Z,16.79000092
2022-09-09T03:04:01.763Z,16.82999992
2022-09-09T03:04:59.056Z,16.87000084
2022-09-09T03:06:00.535Z,16.88999939
2022-09-09T03:06:56.483Z,16.88999939
2022-09-09T03:07:58.433Z,16.88999939
2022-09-09T03:08:53.811Z,16.88999939
2022-09-09T03:09:54.963Z,16.88999939
2022-09-09T03:10:51.655Z,16.87999916
2022-09-09T03:12:00.304Z,16.86000061
2022-09-09T03:12:59.712Z,16.85000038
2022-09-09T03:15:02.682Z,16.85000038
2022-09-09T03:16:01.922Z,16.85000038
2022-09-09T03:17:05.673Z,16.85000038
2022-09-09T03:18:03.434Z,16.84000015
2022-09-09T03:18:59.824Z,16.87000084
2022-09-09T03:20:02.291Z,16.87000084
2022-09-09T03:20:58.543Z,16.86000061
2022-09-09T03:22:28.953Z,16.85000038
2022-09-09T03:23:15.694Z,16.86000061
2022-09-09T03:24:13.503Z,16.90999985
2022-09-09T03:25:11.679Z,16.93000031
2022-09-09T03:26:08.897Z,16.92000008
2022-09-09T03:27:09.645Z,16.93000031
2022-09-09T03:28:05.523Z,16.88999939
2022-09-09T03:29:07.970Z,16.92000008
2022-09-09T03:30:07.373Z,16.89999962
2022-09-09T03:31:04.678Z,16.87999916
2022-09-09T03:32:07.054Z,16.87000084
2022-09-09T03:33:02.414Z,16.85000038
2022-09-09T03:34:05.892Z,16.87000084
2022-09-09T03:35:04.108Z,16.86000061
2022-09-09T03:36:04.904Z,16.85000038
2022-09-09T03:37:01.404Z,16.84000015
2022-09-09T03:38:05.722Z,16.82999992
2022-09-09T03:39:59.066Z,16.82999992
2022-09-09T03:40:57.085Z,16.84000015
2022-09-09T03:42:02.794Z,16.81999969
2022-09-09T03:43:03.087Z,16.84000015
2022-09-09T03:44:07.475Z,16.85000038
2022-09-09T03:45:00.323Z,16.85000038
2022-09-09T03:46:03.300Z,16.81999969
2022-09-09T03:46:59.568Z,16.81999969
2022-09-09T03:47:58.706Z,16.82999992
2022-09-09T03:49:02.909Z,16.81999969
2022-09-09T03:49:57.282Z,16.81999969
2022-09-09T03:50:59.013Z,16.80999947
2022-09-09T03:51:59.638Z,16.78000069
2022-09-09T03:52:55.729Z,16.79999924
2022-09-09T03:54:52.299Z,16.81999969
2022-09-09T03:55:54.988Z,16.80999947
2022-09-09T03:56:48.679Z,16.80999947
2022-09-09T03:57:55.780Z,16.81999969
2022-09-09T03:58:51.023Z,16.84000015
2022-09-09T03:59:57.265Z,16.82999992
2022-09-09T04:00:50.878Z,16.84000015
2022-09-09T04:02:38.939Z,16.90999985
2022-09-09T04:03:17.863Z,16.96999931
2022-09-09T04:04:22.311Z,17.04000092
2022-09-09T04:05:16.753Z,17.04000092
2022-09-09T04:06:20.726Z,17
2022-09-09T04:07:20.053Z,16.97999954
2022-09-09T04:08:20.658Z,16.95000076
2022-09-09T04:10:17.379Z,16.92000008
2022-09-09T04:11:19.962Z,16.93000031
2022-09-09T04:12:17.378Z,16.94000053
2022-09-09T04:13:21.395Z,16.93000031
2022-09-09T04:14:16.748Z,16.93000031
2022-09-09T04:15:17.699Z,16.89999962
2022-09-09T04:16:13.175Z,16.88999939
2022-09-09T04:17:13.575Z,16.86000061
2022-09-09T04:18:08.641Z,16.86000061
2022-09-09T04:19:17.749Z,16.85000038
2022-09-09T04:20:15.250Z,16.84000015
2022-09-09T04:21:13.289Z,16.82999992
2022-09-09T04:22:13.469Z,16.80999947
2022-09-09T04:23:11.547Z,16.81999969
2022-09-09T04:24:12.268Z,16.86000061
2022-09-09T04:25:11.668Z,16.87999916
2022-09-09T04:26:16.557Z,16.87000084
2022-09-09T04:27:04.438Z,16.85000038
2022-09-09T04:28:10.711Z,16.84000015
2022-09-09T04:30:04.108Z,16.84000015
2022-09-09T04:30:58.833Z,16.82999992
2022-09-09T04:32:03.978Z,16.85000038
2022-09-09T04:33:07.005Z,16.87000084
2022-09-09T04:35:11.805Z,16.86000061
2022-09-09T04:36:03.761Z,16.84000015
2022-09-09T04:37:06.246Z,16.84000015
2022-09-09T04:38:01.650Z,16.82999992
2022-09-09T04:39:03.809Z,16.84000015
2022-09-09T04:40:02.031Z,16.82999992
2022-09-09T04:41:06.198Z,16.82999992
2022-09-09T04:42:05.744Z,16.79999924
2022-09-09T04:43:05.200Z,16.79000092
2022-09-09T04:44:09.660Z,16.82999992
2022-09-09T04:45:04.365Z,16.84000015
2022-09-09T04:46:06.390Z,16.85000038
2022-09-09T04:47:07.842Z,16.86000061
2022-09-09T04:48:01.204Z,16.87000084
2022-09-09T04:49:06.002Z,16.88999939
2022-09-09T04:50:02.001Z,16.85000038
2022-09-09T04:51:06.996Z,16.85000038
2022-09-09T04:51:58.835Z,16.84000015
2022-09-09T04:53:01.204Z,16.84000015
2022-09-09T04:54:44.866Z,16.90999985
2022-09-09T04:55:31.704Z,16.96999931
2022-09-09T04:56:29.748Z,16.98999977
2022-09-09T04:57:31.384Z,16.98999977
2022-09-09T04:58:32.670Z,16.94000053
2022-09-09T04:59:28.817Z,16.93000031
2022-09-09T05:00:30.989Z,16.89999962
2022-09-09T05:01:29.083Z,16.87999916
2022-09-09T05:02:31.488Z,16.88999939
2022-09-09T05:03:23.727Z,16.88999939
2022-09-09T05:05:20.242Z,16.88999939
2022-09-09T05:06:27.874Z,16.87999916
2022-09-09T05:07:21.129Z,16.87000084
2022-09-09T05:08:20.285Z,16.86000061
2022-09-09T05:09:14.999Z,16.86000061
2022-09-09T05:10:16.389Z,16.84000015
2022-09-09T05:11:10.794Z,16.84000015
2022-09-09T05:12:11.941Z,16.82999992
2022-09-09T05:13:06.468Z,16.80999947
2022-09-09T05:14:05.959Z,16.82999992
2022-09-09T05:15:02.262Z,16.79999924
2022-09-09T05:16:04.432Z,16.79999924
2022-09-09T05:17:03.275Z,16.79000092
2022-09-09T05:18:01.504Z,16.77000046
2022-09-09T05:19:03.538Z,16.78000069
2022-09-09T05:19:57.907Z,16.77000046
2022-09-09T05:20:57.543Z,16.77000046
2022-09-09T05:21:52.847Z,16.75
2022-09-09T05:22:57.567Z,16.75
2022-09-09T05:23:58.815Z,16.75
2022-09-09T05:24:54.307Z,16.73999977
2022-09-09T05:25:53.526Z,16.71999931
2022-09-09T05:26:49.564Z,16.72999954
2022-09-09T05:27:50.813Z,16.72999954
2022-09-09T05:30:04.165Z,16.93000031
2022-09-09T05:30:59.215Z,16.98999977
2022-09-09T05:32:00.705Z,17
2022-09-09T05:32:55.659Z,16.96999931
2022-09-09T05:34:55.030Z,16.95999908
2022-09-09T05:36:26.665Z,16.95999908
2022-09-09T05:37:07.000Z,16.98999977
2022-09-09T05:38:05.286Z,17.02000046
2022-09-09T05:39:59.967Z,16.98999977
2022-09-09T05:41:00.324Z,16.97999954
2022-09-09T05:41:56.690Z,16.95000076
2022-09-09T05:42:57.087Z,16.95000076
2022-09-09T05:43:52.467Z,16.94000053
2022-09-09T05:44:54.343Z,16.92000008
2022-09-09T05:45:49.951Z,16.90999985
2022-09-09T05:46:50.207Z,16.90999985
2022-09-09T05:47:46.493Z,16.89999962
2022-09-09T05:48:45.842Z,16.90999985
2022-09-09T05:50:45.908Z,16.89999962
2022-09-09T05:51:40.046Z,16.89999962
2022-09-09T05:52:39.532Z,16.90999985
2022-09-09T05:53:38.754Z,16.90999985
2022-09-09T05:54:38.370Z,16.93000031
2022-09-09T05:55:33.680Z,16.92000008
2022-09-09T05:56:38.376Z,16.92000008
2022-09-09T05:57:31.008Z,16.93000031
2022-09-09T05:58:32.903Z,16.93000031
2022-09-09T06:00:36.945Z,16.95999908
2022-09-09T06:01:32.216Z,16.95999908
2022-09-09T06:02:35.437Z,16.96999931
2022-09-09T06:03:27.898Z,16.97999954
2022-09-09T06:04:31.431Z,17.01000023
2022-09-09T06:05:23.866Z,17
2022-09-09T06:06:25.933Z,17.01000023
2022-09-09T06:07:18.619Z,17.02000046
2022-09-09T06:08:20.593Z,17.03000069
2022-09-09T06:09:22.699Z,17.03000069
2022-09-09T06:10:17.244Z,17.03000069
2022-09-09T06:11:19.666Z,17.03000069
2022-09-09T06:12:14.549Z,17.02000046
2022-09-09T06:13:16.369Z,17.03000069
2022-09-09T06:15:00.480Z,17.12999916
2022-09-09T06:15:40.040Z,17.20999908
2022-09-09T06:16:40.575Z,17.23999977
2022-09-09T06:17:35.922Z,17.26000023
2022-09-09T06:18:35.019Z,17.25
2022-09-09T06:19:33.958Z,17.22999954
2022-09-09T06:20:29.261Z,17.21999931
2022-09-09T06:21:31.242Z,17.20999908
2022-09-09T06:22:26.481Z,17.19000053
2022-09-09T06:23:27.797Z,17.19000053
2022-09-09T06:25:25.135Z,17.19000053
2022-09-09T06:26:26.750Z,17.19000053
2022-09-09T06:27:23.701Z,17.18000031
2022-09-09T06:28:24.850Z,17.18000031
2022-09-09T06:29:25.105Z,17.19000053
2022-09-09T06:30:18.677Z,17.20999908
2022-09-09T06:31:21.213Z,17.21999931
2022-09-09T06:32:15.657Z,17.22999954
2022-09-09T06:33:17.020Z,17.22999954
2022-09-09T06:34:12.518Z,17.25
2022-09-09T06:35:10.425Z,17.23999977
2022-09-09T06:36:17.254Z,17.25
2022-09-09T06:37:09.564Z,17.27000046
2022-09-09T06:38:14.379Z,17.26000023
2022-09-09T06:40:05.800Z,17.30999947
2022-09-09T06:41:06.449Z,17.32999992
2022-09-09T06:42:00.798Z,17.31999969
2022-09-09T06:43:03.128Z,17.30999947
2022-09-09T06:43:58.901Z,17.31999969
2022-09-09T06:45:01.864Z,17.34000015
2022-09-09T06:45:54.834Z,17.31999969
2022-09-09T06:46:59.250Z,17.34000015
2022-09-09T06:47:51.345Z,17.35000038
2022-09-09T06:48:53.370Z,17.35000038
2022-09-09T06:49:48.618Z,17.36000061
2022-09-09T06:50:50.381Z,17.37000084
2022-09-09T06:51:44.699Z,17.37999916
2022-09-09T06:52:43.110Z,17.37999916
2022-09-09T06:54:26.702Z,17.45999908
2022-09-09T06:55:05.745Z,17.52000046
2022-09-09T06:56:16.028Z,17.57999992
2022-09-09T06:56:18.034Z,17.57999992
2022-09-09T06:57:36.891Z,17.59000015
2022-09-09T06:57:38.121Z,17.59000015
2022-09-09T06:57:38.323Z,17.59000015
2022-09-09T06:58:09.080Z,17.62000084
2022-09-09T06:59:08.627Z,17.65999985
2022-09-09T07:00:05.205Z,17.68000031
2022-09-09T07:01:05.228Z,17.65999985
2022-09-09T07:01:59.964Z,17.64999962
2022-09-09T07:02:59.437Z,17.62000084
2022-09-09T07:03:54.010Z,17.62000084
2022-09-09T07:04:54.300Z,17.61000061
2022-09-09T07:05:48.948Z,17.62000084
2022-09-09T07:06:48.529Z,17.62999916
2022-09-09T07:07:43.757Z,17.62999916
2022-09-09T07:08:55.367Z,17.62000084
2022-09-09T07:08:56.177Z,17.62000084
2022-09-09T07:09:40.806Z,17.64999962
2022-09-09T07:10:36.048Z,17.68000031
2022-09-09T07:11:35.409Z,17.68000031
2022-09-09T07:12:30.888Z,17.69000053
2022-09-09T07:13:29.865Z,17.65999985
2022-09-09T07:15:24.124Z,17.62999916
2022-09-09T07:16:19.833Z,17.62000084
2022-09-09T07:17:19.352Z,17.61000061
2022-09-09T07:18:14.431Z,17.60000038
2022-09-09T07:19:15.192Z,17.59000015
2022-09-09T07:20:09.802Z,17.57999992
2022-09-09T07:21:09.577Z,17.59000015
2022-09-09T07:22:06.097Z,17.57999992
2022-09-09T07:23:04.636Z,17.57999992
2022-09-09T07:24:02.518Z,17.59000015
2022-09-09T07:24:57.686Z,17.59000015
2022-09-09T07:26:00.181Z,17.62000084
2022-09-09T07:26:53.106Z,17.67000008
2022-09-09T07:27:55.678Z,17.71999931
2022-09-09T07:28:48.752Z,17.70000076
2022-09-09T07:29:48.576Z,17.78000069
2022-09-09T07:30:47.100Z,17.81999969
2022-09-09T07:31:42.851Z,17.85000038
2022-09-09T07:32:43.711Z,17.89999962
2022-09-09T07:33:39.501Z,17.93000031
2022-09-09T07:34:42.747Z,17.97999954
2022-09-09T07:35:37.197Z,17.97999954
2022-09-09T07:37:14.914Z,18.09000015
2022-09-09T07:37:55.138Z,18.19000053
2022-09-09T07:38:53.234Z,18.20000076
2022-09-09T07:39:51.195Z,18.23999977
2022-09-09T07:40:51.462Z,18.25
2022-09-09T07:41:46.706Z,18.22999954
2022-09-09T07:42:45.025Z,18.26000023
2022-09-09T07:43:44.596Z,18.25
2022-09-09T07:45:37.454Z,18.25
2022-09-09T07:46:37.627Z,18.26000023
2022-09-09T07:47:32.985Z,18.29000092
2022-09-09T07:48:30.313Z,18.29999924
2022-09-09T07:50:25.725Z,18.31999969
2022-09-09T07:51:23.700Z,18.35000038
2022-09-09T07:52:23.558Z,18.34000015
2022-09-09T07:53:23.813Z,18.35000038
2022-09-09T07:55:21.323Z,18.38999939
2022-09-09T07:56:13.761Z,18.38999939
2022-09-09T07:57:16.026Z,18.39999962
2022-09-09T07:58:08.739Z,18.38999939
2022-09-09T08:00:02.960Z,18.36000061
2022-09-09T08:00:59.905Z,18.35000038
2022-09-09T08:01:59.005Z,18.32999992
2022-09-09T08:02:56.522Z,18.27000046
2022-09-09T08:03:56.365Z,18.26000023
2022-09-09T08:03:56.720Z,18.26000023
2022-09-09T08:05:46.672Z,18.29000092
2022-09-09T08:06:47.941Z,18.35000038
2022-09-09T08:07:44.588Z,18.45000076
2022-09-09T08:08:48.609Z,18.54000092
2022-09-09T08:10:45.699Z,18.69000053
2022-09-09T08:11:40.932Z,18.76000023
2022-09-09T08:12:42.135Z,18.84000015
2022-09-09T08:13:01.397Z,18.84000015
2022-09-09T08:13:07.926Z,18.84000015
2022-09-09T08:13:39.474Z,18.95000076
2022-09-09T08:15:36.978Z,19.09000015
2022-09-09T08:16:35.530Z,19.12000084
2022-09-09T08:18:12.981Z,19.14999962
2022-09-09T08:18:53.072Z,19.14999962
2022-09-09T08:19:50.980Z,19.14999962
2022-09-09T08:20:50.150Z,19.12000084
2022-09-09T08:21:46.605Z,19.09000015
2022-09-09T08:22:44.476Z,19.04999924
2022-09-09T08:23:42.595Z,19.03000069
2022-09-09T08:25:38.160Z,19.04000092
2022-09-09T08:26:35.659Z,19.04000092
2022-09-09T08:27:38.294Z,19.04000092
2022-09-09T08:28:33.491Z,19.01000023
2022-09-09T08:30:31.559Z,18.94000053
2022-09-09T08:31:26.010Z,18.90999985
2022-09-09T08:32:28.424Z,18.88999939
2022-09-09T08:33:23.063Z,18.85000038
2022-09-09T08:34:25.672Z,18.81999969
2022-09-09T08:35:17.495Z,18.79999924
2022-09-09T08:36:16.501Z,18.77000046
2022-09-09T08:37:11.215Z,18.75
2022-09-09T08:38:11.286Z,18.73999977
2022-09-09T08:39:07.675Z,18.70000076
2022-09-09T08:40:09.386Z,18.69000053
2022-09-09T08:41:01.542Z,18.68000031
2022-09-09T08:42:00.215Z,18.68000031
2022-09-09T08:42:54.781Z,18.65999985
2022-09-09T08:43:54.953Z,18.68000031
2022-09-09T08:45:51.908Z,18.71999931
2022-09-09T08:46:43.745Z,18.69000053
2022-09-09T08:47:40.176Z,18.67000008
2022-09-09T08:48:39.895Z,18.64999962
2022-09-09T08:50:35.750Z,18.59000015
2022-09-09T08:52:21.943Z,18.62000084
2022-09-09T08:52:43.304Z,18.64999962
2022-09-09T08:53:41.467Z,18.73999977
2022-09-09T08:54:52.117Z,18.75
2022-09-09T08:54:52.386Z,18.75
2022-09-09T08:55:37.910Z,18.76000023
2022-09-09T08:56:38.928Z,18.77000046
2022-09-09T08:57:34.399Z,18.79000092
2022-09-09T08:58:34.827Z,18.79000092
2022-09-09T08:59:30.854Z,18.76000023
2022-09-09T09:00:30.626Z,18.75
2022-09-09T09:01:26.100Z,18.73999977
2022-09-09T09:02:29.364Z,18.70999908
2022-09-09T09:03:23.601Z,18.72999954
2022-09-09T09:05:19.759Z,18.73999977
2022-09-09T09:06:20.608Z,18.76000023
2022-09-09T09:07:16.632Z,18.78000069
2022-09-09T09:08:20.312Z,18.80999947
2022-09-09T09:09:13.961Z,18.85000038
2022-09-09T09:10:39.789Z,18.87000084
2022-09-09T09:10:40.591Z,18.87000084
2022-09-09T09:11:14.372Z,18.90999985
2022-09-09T09:12:10.899Z,18.95999908
2022-09-09T09:13:14.530Z,18.97999954
2022-09-09T09:15:09.245Z,19.02000046
2022-09-09T09:16:05.569Z,18.98999977
2022-09-09T09:17:05.590Z,18.97999954
2022-09-09T09:18:01.273Z,18.96999931
2022-09-09T09:18:59.626Z,18.94000053
2022-09-09T09:20:00.791Z,18.96999931
2022-09-09T09:20:57.914Z,18.97999954
2022-09-09T09:21:59.067Z,18.98999977
2022-09-09T09:22:55.347Z,18.96999931
2022-09-09T09:23:55.588Z,18.92000008
2022-09-09T09:24:50.863Z,18.90999985
2022-09-09T09:25:53.982Z,18.90999985
2022-09-09T09:26:47.467Z,18.90999985
2022-09-09T09:27:46.013Z,18.90999985
2022-09-09T09:28:45.957Z,18.89999962
2022-09-09T09:30:44.248Z,18.94000053
2022-09-09T09:31:04.660Z,18.97999954
2022-09-09T09:32:02.839Z,19.07999992
2022-09-09T09:32:59.773Z,19.13999939
2022-09-09T09:33:59.937Z,19.10000038
2022-09-09T09:35:57.299Z,19.02000046
2022-09-09T09:36:49.982Z,19.01000023
2022-09-09T09:40:50.032Z,19.18000031
2022-09-09T09:41:50.048Z,19.20000076
2022-09-09T09:42:44.865Z,19.19000053
2022-09-09T09:43:44.813Z,19.15999985
2022-09-09T09:44:43.812Z,19.11000061
2022-09-09T09:45:46.763Z,19.07999992
2022-09-09T09:46:06.786Z,19.07999992
2022-09-09T09:46:16.359Z,19.07999992
2022-09-09T09:46:41.776Z,19.09000015
2022-09-09T09:47:38.167Z,19.13999939
2022-09-09T09:48:37.601Z,19.13999939
2022-09-09T09:50:34.543Z,19.07999992
2022-09-09T09:51:27.100Z,19.09000015
2022-09-09T09:52:26.819Z,19.06999969
2022-09-09T09:53:22.809Z,19.04000092
2022-09-09T09:54:22.207Z,19.02000046
2022-09-09T09:55:17.025Z,19.01000023
2022-09-09T09:56:20.570Z,18.97999954
2022-09-09T09:57:13.147Z,18.93000031
2022-09-09T09:58:15.170Z,18.94000053
2022-09-09T09:59:17.882Z,18.90999985
2022-09-09T09:59:23.387Z,18.90999985
2022-09-09T09:59:29.673Z,18.90999985
2022-09-09T10:00:09.920Z,18.95000076
2022-09-09T10:01:05.316Z,18.98999977
2022-09-09T10:02:07.359Z,19
2022-09-09T10:03:00.303Z,18.98999977
2022-09-09T10:03:59.827Z,18.95000076
2022-09-09T10:04:54.459Z,18.92000008
2022-09-09T10:05:53.829Z,18.92000008
2022-09-09T10:06:48.267Z,18.88999939
2022-09-09T10:07:47.901Z,18.85000038
2022-09-09T10:08:44.053Z,18.80999947
2022-09-09T10:09:40.286Z,18.79000092
2022-09-09T10:10:40.185Z,18.73999977
2022-09-09T10:11:34.770Z,18.68000031
2022-09-09T10:12:33.610Z,18.70000076
2022-09-09T10:13:28.240Z,18.70999908
2022-09-09T10:14:28.626Z,18.72999954
2022-09-09T10:15:23.353Z,18.79000092
2022-09-09T10:16:25.708Z,18.82999992
2022-09-09T10:17:18.511Z,18.84000015
2022-09-09T10:18:20.504Z,18.86000061
2022-09-09T10:20:15.446Z,18.93000031
2022-09-09T10:21:09.730Z,18.95999908
2022-09-09T10:22:33.680Z,19.01000023
2022-09-09T10:23:13.890Z,19.07999992
2022-09-09T10:24:12.005Z,19.10000038
2022-09-09T10:25:09.330Z,19.11000061
2022-09-09T10:26:07.597Z,19.12999916
2022-09-09T10:27:05.755Z,19.15999985
2022-09-09T10:28:06.064Z,19.20000076
2022-09-09T10:29:01.423Z,19.21999931
2022-09-09T10:30:57.674Z,19.26000023
2022-09-09T10:31:55.202Z,19.28000069
2022-09-09T10:32:55.222Z,19.28000069
2022-09-09T10:33:53.235Z,19.26000023
2022-09-09T10:34:50.456Z,19.26000023
2022-09-09T10:35:47.585Z,19.26000023
2022-09-09T10:36:46.908Z,19.25
2022-09-09T10:37:44.410Z,19.26000023
2022-09-09T10:38:43.553Z,19.25
2022-09-09T10:40:39.475Z,19.19000053
2022-09-09T10:41:41.532Z,19.20999908
2022-09-09T10:42:36.818Z,19.23999977
2022-09-09T10:43:39.901Z,19.21999931
2022-09-09T10:44:34.171Z,19.21999931
2022-09-09T10:45:36.289Z,19.22999954
2022-09-09T10:46:29.070Z,19.22999954
2022-09-09T10:47:29.425Z,19.25
2022-09-09T10:48:29.347Z,19.27000046
2022-09-09T10:49:24.016Z,19.28000069
2022-09-09T10:50:50.335Z,19.30999947
2022-09-09T10:51:00.024Z,19.30999947
2022-09-09T10:51:29.310Z,19.30999947
2022-09-09T10:52:25.586Z,19.35000038
2022-09-09T10:53:21.543Z,19.37000084
2022-09-09T10:54:27.129Z,19.37000084
2022-09-09T10:56:16.657Z,19.44000053
2022-09-09T10:56:50.908Z,19.51000023
2022-09-09T10:57:48.458Z,19.54000092
2022-09-09T10:58:21.918Z,19.54000092
2022-09-09T10:59:16.893Z,19.5
2022-09-09T11:00:16.078Z,19.47999954
2022-09-09T11:01:10.703Z,19.45999908
2022-09-09T11:02:10.188Z,19.42000008
2022-09-09T11:03:04.611Z,19.39999962
2022-09-09T11:04:03.891Z,19.35000038
2022-09-09T11:05:57.983Z,19.27000046
2022-09-09T11:06:52.836Z,19.21999931
2022-09-09T11:07:51.893Z,19.20000076
2022-09-09T11:08:47.969Z,19.18000031
2022-09-09T11:09:50.876Z,19.17000008
2022-09-09T11:10:43.692Z,19.17000008
2022-09-09T11:11:45.608Z,19.17000008
2022-09-09T11:12:39.906Z,19.13999939
2022-09-09T11:13:37.395Z,19.13999939
2022-09-09T11:14:37.682Z,19.12000084
2022-09-09T11:15:31.583Z,19.12999916
2022-09-09T11:16:29.606Z,19.12000084
2022-09-09T11:17:26.793Z,19.07999992
2022-09-09T11:18:23.676Z,19.06999969
2022-09-09T11:20:20.157Z,19.14999962
2022-09-09T11:21:17.312Z,19.18000031
2022-09-09T11:22:14.043Z,19.18000031
2022-09-09T11:23:10.818Z,19.17000008
2022-09-09T11:24:09.475Z,19.17000008